sensor_id;sensor_type;location;lat;lon;timestamp;pressure;altitude;pressure_sealevel;temperature;humidity
28628;BME280;15815;46.760;19.604;2023-10-31T07:58:50;99247.06;;;20.29;48.30
28628;BME280;15815;46.760;19.604;2023-10-31T08:01:17;99257.44;;;20.88;46.85
28628;BME280;15815;46.760;19.604;2023-10-31T08:03:46;99257.28;;;20.97;46.18
28628;BME280;15815;46.760;19.604;2023-10-31T08:06:11;99256.44;;;21.11;46.68
28628;BME280;15815;46.760;19.604;2023-10-31T08:08:37;99267.53;;;20.83;45.99
28628;BME280;15815;46.760;19.604;2023-10-31T08:11:02;99251.78;;;20.53;47.27
28628;BME280;15815;46.760;19.604;2023-10-31T08:13:29;99261.69;;;20.37;46.27
28628;BME280;15815;46.760;19.604;2023-10-31T08:15:54;99263.63;;;20.46;46.49
28628;BME280;15815;46.760;19.604;2023-10-31T08:18:22;99263.66;;;21.33;45.15
28628;BME280;15815;46.760;19.604;2023-10-31T08:20:48;99250.59;;;22.09;44.07
28628;BME280;15815;46.760;19.604;2023-10-31T08:23:15;99251.28;;;21.67;43.92
28628;BME280;15815;46.760;19.604;2023-10-31T08:25:40;99223.50;;;21.42;44.93
28628;BME280;15815;46.760;19.604;2023-10-31T08:28:06;99251.53;;;21.38;44.58
28628;BME280;15815;46.760;19.604;2023-10-31T08:30:31;99243.09;;;21.28;43.87
28628;BME280;15815;46.760;19.604;2023-10-31T08:32:56;99238.59;;;21.22;44.70
28628;BME280;15815;46.760;19.604;2023-10-31T08:35:22;99233.97;;;21.24;43.57
28628;BME280;15815;46.760;19.604;2023-10-31T08:37:47;99227.88;;;21.37;43.02
28628;BME280;15815;46.760;19.604;2023-10-31T08:40:16;99223.06;;;21.86;41.84
28628;BME280;15815;46.760;19.604;2023-10-31T08:42:42;99236.69;;;22.34;41.50
28628;BME280;15815;46.760;19.604;2023-10-31T08:45:08;99209.59;;;22.77;41.83
28628;BME280;15815;46.760;19.604;2023-10-31T08:47:33;99203.97;;;22.46;41.24
28628;BME280;15815;46.760;19.604;2023-10-31T08:49:59;99214.03;;;22.30;41.33
28628;BME280;15815;46.760;19.604;2023-10-31T08:52:25;99205.59;;;22.10;41.78
28628;BME280;15815;46.760;19.604;2023-10-31T08:54:50;99204.22;;;22.00;41.74
28628;BME280;15815;46.760;19.604;2023-10-31T08:57:15;99194.44;;;21.80;41.63
28628;BME280;15815;46.760;19.604;2023-10-31T08:59:41;99179.84;;;21.41;42.09
28628;BME280;15815;46.760;19.604;2023-10-31T09:02:06;99195.25;;;21.49;42.25
28628;BME280;15815;46.760;19.604;2023-10-31T09:04:32;99198.56;;;21.42;42.09
28628;BME280;15815;46.760;19.604;2023-10-31T09:06:57;99190.53;;;21.20;41.95
28628;BME280;15815;46.760;19.604;2023-10-31T09:09:25;99180.34;;;21.14;42.78
28628;BME280;15815;46.760;19.604;2023-10-31T09:11:50;99182.44;;;21.13;42.47
28628;BME280;15815;46.760;19.604;2023-10-31T09:14:16;99190.44;;;21.09;42.95
28628;BME280;15815;46.760;19.604;2023-10-31T09:16:41;99183.31;;;20.99;43.11
28628;BME280;15815;46.760;19.604;2023-10-31T09:19:10;99181.69;;;20.92;42.62
28628;BME280;15815;46.760;19.604;2023-10-31T09:21:35;99172.28;;;20.86;42.79
28628;BME280;15815;46.760;19.604;2023-10-31T09:24:02;99168.09;;;20.82;43.42
28628;BME280;15815;46.760;19.604;2023-10-31T09:26:28;99173.47;;;20.80;42.93
28628;BME280;15815;46.760;19.604;2023-10-31T09:28:55;99159.88;;;20.69;42.61
28628;BME280;15815;46.760;19.604;2023-10-31T09:31:23;99162.78;;;20.75;43.02
28628;BME280;15815;46.760;19.604;2023-10-31T09:33:49;99155.78;;;20.76;43.18
28628;BME280;15815;46.760;19.604;2023-10-31T09:36:14;99139.38;;;20.71;43.37
28628;BME280;15815;46.760;19.604;2023-10-31T09:38:40;99152.50;;;20.83;42.85
28628;BME280;15815;46.760;19.604;2023-10-31T09:41:06;99139.22;;;20.80;42.96
28628;BME280;15815;46.760;19.604;2023-10-31T09:43:32;99134.41;;;20.91;43.34
28628;BME280;15815;46.760;19.604;2023-10-31T09:45:58;99159.44;;;21.02;42.90
28628;BME280;15815;46.760;19.604;2023-10-31T09:48:23;99158.16;;;21.03;42.51
28628;BME280;15815;46.760;19.604;2023-10-31T09:50:49;99150.66;;;21.06;42.52
28628;BME280;15815;46.760;19.604;2023-10-31T09:53:18;99143.59;;;21.01;42.48
28628;BME280;15815;46.760;19.604;2023-10-31T09:55:48;99134.53;;;21.03;42.89
28628;BME280;15815;46.760;19.604;2023-10-31T09:58:14;99125.16;;;21.02;43.26
28628;BME280;15815;46.760;19.604;2023-10-31T10:00:39;99123.66;;;21.07;43.42
28628;BME280;15815;46.760;19.604;2023-10-31T10:03:09;99127.59;;;21.09;42.68
28628;BME280;15815;46.760;19.604;2023-10-31T10:05:39;99089.97;;;20.85;43.12
28628;BME280;15815;46.760;19.604;2023-10-31T10:08:06;99109.53;;;20.97;43.16
28628;BME280;15815;46.760;19.604;2023-10-31T10:10:33;99094.13;;;20.84;42.53
28628;BME280;15815;46.760;19.604;2023-10-31T10:12:59;99098.03;;;20.86;42.57
28628;BME280;15815;46.760;19.604;2023-10-31T10:15:26;99091.91;;;20.99;42.89
28628;BME280;15815;46.760;19.604;2023-10-31T10:17:52;99061.22;;;20.94;42.86
28628;BME280;15815;46.760;19.604;2023-10-31T10:20:18;99078.28;;;21.14;44.07
28628;BME280;15815;46.760;19.604;2023-10-31T10:22:44;99061.44;;;21.22;42.36
28628;BME280;15815;46.760;19.604;2023-10-31T10:25:11;99061.03;;;21.35;42.49
28628;BME280;15815;46.760;19.604;2023-10-31T10:27:36;99054.09;;;21.41;42.40
28628;BME280;15815;46.760;19.604;2023-10-31T10:30:03;99041.91;;;21.46;41.26
28628;BME280;15815;46.760;19.604;2023-10-31T10:32:29;99049.47;;;21.55;40.54
28628;BME280;15815;46.760;19.604;2023-10-31T10:34:54;99032.34;;;21.55;40.01
28628;BME280;15815;46.760;19.604;2023-10-31T10:37:20;99041.50;;;21.65;41.11
28628;BME280;15815;46.760;19.604;2023-10-31T10:40:06;99012.59;;;21.57;40.66
28628;BME280;15815;46.760;19.604;2023-10-31T10:42:33;99023.13;;;21.82;41.02
28628;BME280;15815;46.760;19.604;2023-10-31T10:45:06;99014.50;;;21.77;40.47
28628;BME280;15815;46.760;19.604;2023-10-31T10:47:39;99014.25;;;21.80;39.89
28628;BME280;15815;46.760;19.604;2023-10-31T10:50:05;99011.13;;;21.78;40.15
28628;BME280;15815;46.760;19.604;2023-10-31T10:55:30;98998.38;;;21.74;40.21
28628;BME280;15815;46.760;19.604;2023-10-31T10:58:22;98977.06;;;21.75;40.42
28628;BME280;15815;46.760;19.604;2023-10-31T11:00:52;98971.59;;;21.66;40.33
28628;BME280;15815;46.760;19.604;2023-10-31T11:03:19;98968.16;;;21.62;40.00
28628;BME280;15815;46.760;19.604;2023-10-31T11:05:46;98980.94;;;21.66;40.01
28628;BME280;15815;46.760;19.604;2023-10-31T11:08:13;98966.38;;;21.64;39.35
28628;BME280;15815;46.760;19.604;2023-10-31T11:10:39;98939.28;;;21.54;40.06
28628;BME280;15815;46.760;19.604;2023-10-31T11:13:06;98950.81;;;21.71;39.45
28628;BME280;15815;46.760;19.604;2023-10-31T11:15:31;98940.94;;;21.77;39.17
28628;BME280;15815;46.760;19.604;2023-10-31T11:17:57;98927.69;;;21.85;39.17
28628;BME280;15815;46.760;19.604;2023-10-31T11:20:24;98924.38;;;21.93;39.24
28628;BME280;15815;46.760;19.604;2023-10-31T11:22:55;98899.94;;;22.03;38.99
28628;BME280;15815;46.760;19.604;2023-10-31T11:25:21;98899.41;;;21.99;38.96
28628;BME280;15815;46.760;19.604;2023-10-31T11:27:46;98883.53;;;21.92;39.07
28628;BME280;15815;46.760;19.604;2023-10-31T11:30:27;98870.53;;;21.97;39.00
28628;BME280;15815;46.760;19.604;2023-10-31T11:32:57;98871.63;;;22.05;39.06
28628;BME280;15815;46.760;19.604;2023-10-31T11:35:23;98872.91;;;22.04;38.37
28628;BME280;15815;46.760;19.604;2023-10-31T11:37:49;98877.59;;;22.18;39.73
28628;BME280;15815;46.760;19.604;2023-10-31T11:40:17;98877.63;;;22.29;38.92
28628;BME280;15815;46.760;19.604;2023-10-31T11:42:51;98883.84;;;22.84;38.47
28628;BME280;15815;46.760;19.604;2023-10-31T11:47:58;98894.28;;;22.81;38.68
28628;BME280;15815;46.760;19.604;2023-10-31T11:50:25;98888.28;;;22.57;39.16
28628;BME280;15815;46.760;19.604;2023-10-31T11:55:36;98882.81;;;22.47;40.08
28628;BME280;15815;46.760;19.604;2023-10-31T11:58:20;98863.06;;;22.22;39.53
28628;BME280;15815;46.760;19.604;2023-10-31T12:00:47;98867.72;;;22.08;39.77
28628;BME280;15815;46.760;19.604;2023-10-31T12:03:15;98860.41;;;21.96;40.53
28628;BME280;15815;46.760;19.604;2023-10-31T12:05:51;98858.09;;;22.16;40.03
28628;BME280;15815;46.760;19.604;2023-10-31T12:08:39;98846.13;;;22.18;40.43
28628;BME280;15815;46.760;19.604;2023-10-31T12:11:14;98842.47;;;22.17;41.10
28628;BME280;15815;46.760;19.604;2023-10-31T12:13:42;98841.19;;;22.13;40.97
28628;BME280;15815;46.760;19.604;2023-10-31T12:16:09;98853.91;;;22.01;41.13
28628;BME280;15815;46.760;19.604;2023-10-31T12:18:35;98841.69;;;22.00;41.54
28628;BME280;15815;46.760;19.604;2023-10-31T12:21:01;98845.31;;;22.01;42.00
28628;BME280;15815;46.760;19.604;2023-10-31T12:23:27;98841.69;;;21.95;41.79
28628;BME280;15815;46.760;19.604;2023-10-31T12:25:53;98835.97;;;21.95;42.43
28628;BME280;15815;46.760;19.604;2023-10-31T12:28:21;98838.00;;;21.88;42.35
28628;BME280;15815;46.760;19.604;2023-10-31T12:30:49;98838.78;;;21.83;43.98
28628;BME280;15815;46.760;19.604;2023-10-31T12:33:16;98828.59;;;21.60;45.09
28628;BME280;15815;46.760;19.604;2023-10-31T12:35:43;98826.00;;;21.56;45.13
28628;BME280;15815;46.760;19.604;2023-10-31T12:38:13;98835.34;;;21.46;44.52
28628;BME280;15815;46.760;19.604;2023-10-31T12:40:43;98839.22;;;21.43;44.58
28628;BME280;15815;46.760;19.604;2023-10-31T12:43:09;98841.50;;;21.33;44.45
28628;BME280;15815;46.760;19.604;2023-10-31T12:45:38;98838.13;;;21.29;45.07
28628;BME280;15815;46.760;19.604;2023-10-31T12:48:06;98840.16;;;21.23;45.08
28628;BME280;15815;46.760;19.604;2023-10-31T12:50:32;98835.25;;;21.23;44.76
28628;BME280;15815;46.760;19.604;2023-10-31T12:52:59;98852.91;;;21.27;44.91
28628;BME280;15815;46.760;19.604;2023-10-31T12:55:28;98870.81;;;21.22;44.98
28628;BME280;15815;46.760;19.604;2023-10-31T12:57:54;98903.31;;;21.31;45.44
28628;BME280;15815;46.760;19.604;2023-10-31T13:00:20;98944.66;;;21.35;45.13
28628;BME280;15815;46.760;19.604;2023-10-31T13:02:46;99064.88;;;21.26;44.98
28628;BME280;15815;46.760;19.604;2023-10-31T13:05:13;99102.56;;;21.30;45.90
28628;BME280;15815;46.760;19.604;2023-10-31T13:07:40;99138.72;;;21.07;49.03
28628;BME280;15815;46.760;19.604;2023-10-31T13:10:06;99135.25;;;20.72;51.08
28628;BME280;15815;46.760;19.604;2023-10-31T13:12:32;99134.78;;;20.53;52.34
28628;BME280;15815;46.760;19.604;2023-10-31T13:14:58;99156.81;;;20.32;52.76
28628;BME280;15815;46.760;19.604;2023-10-31T13:17:23;99181.19;;;20.13;55.22
28628;BME280;15815;46.760;19.604;2023-10-31T13:19:49;99145.66;;;19.73;57.69
28628;BME280;15815;46.760;19.604;2023-10-31T13:22:14;99190.75;;;19.74;57.77
28628;BME280;15815;46.760;19.604;2023-10-31T13:24:40;99206.19;;;19.68;59.80
28628;BME280;15815;46.760;19.604;2023-10-31T13:27:06;99165.84;;;19.25;61.25
28628;BME280;15815;46.760;19.604;2023-10-31T13:29:31;99216.53;;;19.21;63.23
28628;BME280;15815;46.760;19.604;2023-10-31T13:31:57;99209.72;;;19.04;65.98
28628;BME280;15815;46.760;19.604;2023-10-31T13:34:22;99214.09;;;18.75;68.96
28628;BME280;15815;46.760;19.604;2023-10-31T13:36:48;99221.47;;;18.58;69.24
28628;BME280;15815;46.760;19.604;2023-10-31T13:39:13;99204.59;;;18.31;71.52
28628;BME280;15815;46.760;19.604;2023-10-31T13:41:39;99202.66;;;18.13;73.46
28628;BME280;15815;46.760;19.604;2023-10-31T13:44:05;99162.09;;;18.03;75.07
28628;BME280;15815;46.760;19.604;2023-10-31T13:46:30;99162.19;;;17.94;75.11
28628;BME280;15815;46.760;19.604;2023-10-31T13:48:57;99189.34;;;17.95;73.83
28628;BME280;15815;46.760;19.604;2023-10-31T13:51:22;99223.50;;;17.86;75.99
28628;BME280;15815;46.760;19.604;2023-10-31T13:53:48;99252.22;;;17.88;75.43
28628;BME280;15815;46.760;19.604;2023-10-31T13:56:13;99245.47;;;17.76;74.76
28628;BME280;15815;46.760;19.604;2023-10-31T13:58:39;99263.19;;;17.71;76.91
28628;BME280;15815;46.760;19.604;2023-10-31T14:01:04;99247.69;;;17.72;75.53
28628;BME280;15815;46.760;19.604;2023-10-31T14:03:30;99231.75;;;17.75;75.31
28628;BME280;15815;46.760;19.604;2023-10-31T14:05:55;99239.97;;;17.73;74.74
28628;BME280;15815;46.760;19.604;2023-10-31T14:08:21;99250.72;;;17.59;77.96
28628;BME280;15815;46.760;19.604;2023-10-31T14:10:46;99238.09;;;17.60;79.20
28628;BME280;15815;46.760;19.604;2023-10-31T14:13:12;99225.03;;;17.54;80.24
28628;BME280;15815;46.760;19.604;2023-10-31T14:15:37;99194.28;;;17.43;77.87
28628;BME280;15815;46.760;19.604;2023-10-31T14:18:03;99167.09;;;17.51;77.04
28628;BME280;15815;46.760;19.604;2023-10-31T14:20:29;99137.81;;;17.36;81.12
28628;BME280;15815;46.760;19.604;2023-10-31T14:22:54;99123.22;;;17.52;78.51
28628;BME280;15815;46.760;19.604;2023-10-31T14:25:20;99101.81;;;17.42;78.28
28628;BME280;15815;46.760;19.604;2023-10-31T14:27:48;99127.59;;;17.63;77.40
28628;BME280;15815;46.760;19.604;2023-10-31T14:30:14;99107.09;;;17.58;77.45
28628;BME280;15815;46.760;19.604;2023-10-31T14:32:39;99087.91;;;17.44;78.96
28628;BME280;15815;46.760;19.604;2023-10-31T14:35:05;99123.47;;;17.30;83.29
28628;BME280;15815;46.760;19.604;2023-10-31T14:37:31;99099.44;;;17.08;81.01
28628;BME280;15815;46.760;19.604;2023-10-31T14:39:56;99145.25;;;17.34;82.41
28628;BME280;15815;46.760;19.604;2023-10-31T14:42:22;99145.97;;;17.01;84.03
28628;BME280;15815;46.760;19.604;2023-10-31T14:44:47;99175.81;;;16.78;85.37
28628;BME280;15815;46.760;19.604;2023-10-31T14:47:13;99201.03;;;16.67;87.51
28628;BME280;15815;46.760;19.604;2023-10-31T14:49:38;99208.41;;;16.46;89.35
28628;BME280;15815;46.760;19.604;2023-10-31T14:52:04;99217.25;;;16.66;89.44
28628;BME280;15815;46.760;19.604;2023-10-31T14:54:32;99165.38;;;16.38;90.60
28628;BME280;15815;46.760;19.604;2023-10-31T14:57:05;99163.34;;;16.48;91.97
28628;BME280;15815;46.760;19.604;2023-10-31T14:59:33;99126.00;;;16.22;92.96
28628;BME280;15815;46.760;19.604;2023-10-31T15:01:59;99144.25;;;16.12;93.71
28628;BME280;15815;46.760;19.604;2023-10-31T15:04:24;99182.72;;;16.22;94.90
28628;BME280;15815;46.760;19.604;2023-10-31T15:06:50;99161.25;;;15.94;96.23
28628;BME280;15815;46.760;19.604;2023-10-31T15:09:34;99176.22;;;16.03;95.16
28628;BME280;15815;46.760;19.604;2023-10-31T15:11:59;99158.06;;;15.83;96.12
28628;BME280;15815;46.760;19.604;2023-10-31T15:14:25;99143.56;;;15.81;96.48
28628;BME280;15815;46.760;19.604;2023-10-31T15:16:50;99155.53;;;15.75;96.59
28628;BME280;15815;46.760;19.604;2023-10-31T15:19:16;99169.53;;;15.70;98.20
28628;BME280;15815;46.760;19.604;2023-10-31T15:21:41;99141.75;;;15.56;99.84
28628;BME280;15815;46.760;19.604;2023-10-31T15:24:10;99162.13;;;15.72;99.76
28628;BME280;15815;46.760;19.604;2023-10-31T15:26:35;99150.78;;;15.63;100.00
28628;BME280;15815;46.760;19.604;2023-10-31T15:29:01;99127.41;;;15.50;100.00
28628;BME280;15815;46.760;19.604;2023-10-31T15:31:27;99143.06;;;15.64;100.00
28628;BME280;15815;46.760;19.604;2023-10-31T15:33:53;99114.75;;;15.64;99.30
28628;BME280;15815;46.760;19.604;2023-10-31T15:36:18;99127.03;;;15.70;99.46
28628;BME280;15815;46.760;19.604;2023-10-31T15:38:44;99090.75;;;15.46;98.62
28628;BME280;15815;46.760;19.604;2023-10-31T15:41:09;99075.16;;;15.42;98.88
28628;BME280;15815;46.760;19.604;2023-10-31T15:43:36;99089.94;;;15.37;99.80
28628;BME280;15815;46.760;19.604;2023-10-31T15:46:01;99073.28;;;15.39;99.35
28628;BME280;15815;46.760;19.604;2023-10-31T15:48:28;99084.63;;;15.48;98.59
28628;BME280;15815;46.760;19.604;2023-10-31T15:50:53;99083.97;;;15.44;99.04
28628;BME280;15815;46.760;19.604;2023-10-31T15:53:19;99096.25;;;15.41;99.62
28628;BME280;15815;46.760;19.604;2023-10-31T15:55:45;99101.84;;;15.32;99.70
28628;BME280;15815;46.760;19.604;2023-10-31T15:58:11;99105.91;;;15.22;100.00
28628;BME280;15815;46.760;19.604;2023-10-31T16:00:37;99150.03;;;15.41;98.70
28628;BME280;15815;46.760;19.604;2023-10-31T16:03:05;99233.94;;;15.57;99.48
28628;BME280;15815;46.760;19.604;2023-10-31T16:05:31;99235.50;;;15.58;98.91
28628;BME280;15815;46.760;19.604;2023-10-31T16:07:57;99258.00;;;15.52;98.38
28628;BME280;15815;46.760;19.604;2023-10-31T16:10:25;99276.19;;;15.64;98.58
28628;BME280;15815;46.760;19.604;2023-10-31T16:12:51;99266.91;;;15.63;98.44
28628;BME280;15815;46.760;19.604;2023-10-31T16:15:16;99266.91;;;15.63;98.41
28628;BME280;15815;46.760;19.604;2023-10-31T16:17:43;99279.25;;;15.57;99.00
28628;BME280;15815;46.760;19.604;2023-10-31T16:20:08;99298.25;;;15.69;97.21
28628;BME280;15815;46.760;19.604;2023-10-31T16:22:34;99295.56;;;15.65;96.22
28628;BME280;15815;46.760;19.604;2023-10-31T16:24:59;99293.09;;;15.55;96.46
28628;BME280;15815;46.760;19.604;2023-10-31T16:27:25;99314.72;;;15.61;94.62
28628;BME280;15815;46.760;19.604;2023-10-31T16:29:50;99314.72;;;15.61;95.23
28628;BME280;15815;46.760;19.604;2023-10-31T16:32:16;99320.16;;;15.56;95.22
28628;BME280;15815;46.760;19.604;2023-10-31T16:34:41;99305.09;;;15.37;94.23
28628;BME280;15815;46.760;19.604;2023-10-31T16:37:07;99314.72;;;15.39;93.21
28628;BME280;15815;46.760;19.604;2023-10-31T16:39:32;99330.59;;;15.37;93.97
28628;BME280;15815;46.760;19.604;2023-10-31T16:41:58;99336.72;;;15.35;92.86
28628;BME280;15815;46.760;19.604;2023-10-31T16:44:23;99343.41;;;15.29;91.73
28628;BME280;15815;46.760;19.604;2023-10-31T16:46:49;99330.25;;;15.13;90.87
28628;BME280;15815;46.760;19.604;2023-10-31T16:49:14;99360.31;;;15.20;90.78
28628;BME280;15815;46.760;19.604;2023-10-31T16:51:40;99367.50;;;15.11;90.73
28628;BME280;15815;46.760;19.604;2023-10-31T16:54:06;99379.75;;;15.08;89.69
28628;BME280;15815;46.760;19.604;2023-10-31T16:56:32;99414.81;;;15.11;89.77
28628;BME280;15815;46.760;19.604;2023-10-31T16:58:57;99417.09;;;15.03;90.00
28628;BME280;15815;46.760;19.604;2023-10-31T17:01:23;99411.00;;;14.92;90.38
28628;BME280;15815;46.760;19.604;2023-10-31T17:03:48;99414.97;;;14.95;89.65
28628;BME280;15815;46.760;19.604;2023-10-31T17:06:14;99404.09;;;14.93;89.46
28628;BME280;15815;46.760;19.604;2023-10-31T17:08:40;99398.50;;;14.80;89.40
28628;BME280;15815;46.760;19.604;2023-10-31T17:11:08;99389.00;;;14.62;88.77
28628;BME280;15815;46.760;19.604;2023-10-31T17:13:34;99410.81;;;14.74;88.26
28628;BME280;15815;46.760;19.604;2023-10-31T17:16:02;99416.03;;;14.63;88.69
28628;BME280;15815;46.760;19.604;2023-10-31T17:18:28;99425.19;;;14.67;88.18
28628;BME280;15815;46.760;19.604;2023-10-31T17:20:55;99438.75;;;14.72;88.58
28628;BME280;15815;46.760;19.604;2023-10-31T17:23:21;99453.13;;;14.65;88.11
28628;BME280;15815;46.760;19.604;2023-10-31T17:25:47;99444.28;;;14.75;88.10
28628;BME280;15815;46.760;19.604;2023-10-31T17:28:12;99452.81;;;14.63;88.87
28628;BME280;15815;46.760;19.604;2023-10-31T17:30:38;99437.41;;;14.64;88.81
28628;BME280;15815;46.760;19.604;2023-10-31T17:33:03;99439.56;;;14.60;88.50
28628;BME280;15815;46.760;19.604;2023-10-31T17:35:29;99435.28;;;14.55;88.61
28628;BME280;15815;46.760;19.604;2023-10-31T17:37:57;99446.94;;;14.57;88.28
28628;BME280;15815;46.760;19.604;2023-10-31T17:40:22;99451.22;;;14.62;88.38
28628;BME280;15815;46.760;19.604;2023-10-31T17:42:48;99458.25;;;14.57;87.93
28628;BME280;15815;46.760;19.604;2023-10-31T17:45:13;99474.16;;;14.51;88.42
28628;BME280;15815;46.760;19.604;2023-10-31T17:47:39;99469.75;;;14.50;87.66
28628;BME280;15815;46.760;19.604;2023-10-31T17:50:05;99473.94;;;14.45;88.59
28628;BME280;15815;46.760;19.604;2023-10-31T17:52:31;99476.50;;;14.27;89.84
28628;BME280;15815;46.760;19.604;2023-10-31T17:54:57;99476.16;;;14.25;89.33
28628;BME280;15815;46.760;19.604;2023-10-31T17:57:22;99479.34;;;14.27;88.86
28628;BME280;15815;46.760;19.604;2023-10-31T17:59:51;99493.81;;;14.29;88.47
28628;BME280;15815;46.760;19.604;2023-10-31T18:02:16;99477.50;;;14.20;88.73
28628;BME280;15815;46.760;19.604;2023-10-31T18:04:42;99494.34;;;14.24;88.84
28628;BME280;15815;46.760;19.604;2023-10-31T18:07:08;99501.25;;;14.23;87.78
28628;BME280;15815;46.760;19.604;2023-10-31T18:09:33;99507.09;;;14.16;89.09
28628;BME280;15815;46.760;19.604;2023-10-31T18:11:59;99518.66;;;14.21;89.05
28628;BME280;15815;46.760;19.604;2023-10-31T18:14:25;99508.34;;;14.15;88.89
28628;BME280;15815;46.760;19.604;2023-10-31T18:16:51;99501.66;;;14.09;88.33
28628;BME280;15815;46.760;19.604;2023-10-31T18:19:19;99511.19;;;14.15;88.65
28628;BME280;15815;46.760;19.604;2023-10-31T18:21:45;99518.19;;;14.10;89.32
28628;BME280;15815;46.760;19.604;2023-10-31T18:24:12;99498.28;;;14.01;88.61
28628;BME280;15815;46.760;19.604;2023-10-31T18:26:40;99506.53;;;14.08;87.94
28628;BME280;15815;46.760;19.604;2023-10-31T18:29:06;99518.72;;;14.05;88.11
28628;BME280;15815;46.760;19.604;2023-10-31T18:31:31;99527.34;;;13.85;88.39
28628;BME280;15815;46.760;19.604;2023-10-31T18:33:57;99532.56;;;13.87;88.24
28628;BME280;15815;46.760;19.604;2023-10-31T18:36:23;99521.13;;;13.78;87.78
28628;BME280;15815;46.760;19.604;2023-10-31T18:38:48;99528.44;;;13.75;87.47
28628;BME280;15815;46.760;19.604;2023-10-31T18:41:14;99510.03;;;13.71;87.34
28628;BME280;15815;46.760;19.604;2023-10-31T18:43:39;99517.44;;;13.65;87.59
28628;BME280;15815;46.760;19.604;2023-10-31T18:46:10;99516.03;;;13.56;86.81
28628;BME280;15815;46.760;19.604;2023-10-31T18:48:35;99515.09;;;13.47;87.39
28628;BME280;15815;46.760;19.604;2023-10-31T18:51:05;99515.56;;;13.45;86.72
28628;BME280;15815;46.760;19.604;2023-10-31T18:53:32;99528.31;;;13.50;86.83
28628;BME280;15815;46.760;19.604;2023-10-31T18:55:58;99524.53;;;13.40;85.91
28628;BME280;15815;46.760;19.604;2023-10-31T18:58:23;99547.19;;;13.37;86.09
28628;BME280;15815;46.760;19.604;2023-10-31T19:00:50;99548.28;;;13.26;86.27
28628;BME280;15815;46.760;19.604;2023-10-31T19:03:16;99531.16;;;13.01;86.91
28628;BME280;15815;46.760;19.604;2023-10-31T19:05:41;99550.97;;;13.14;87.03
28628;BME280;15815;46.760;19.604;2023-10-31T19:08:07;99550.25;;;13.10;87.00
28628;BME280;15815;46.760;19.604;2023-10-31T19:10:33;99558.72;;;13.10;86.87
28628;BME280;15815;46.760;19.604;2023-10-31T19:13:02;99549.66;;;13.02;87.28
28628;BME280;15815;46.760;19.604;2023-10-31T19:15:28;99582.09;;;13.10;87.98
28628;BME280;15815;46.760;19.604;2023-10-31T19:17:53;99599.72;;;13.14;87.77
28628;BME280;15815;46.760;19.604;2023-10-31T19:20:19;99605.19;;;13.05;87.68
28628;BME280;15815;46.760;19.604;2023-10-31T19:22:45;99646.78;;;13.21;88.27
28628;BME280;15815;46.760;19.604;2023-10-31T19:25:11;99648.28;;;13.25;88.35
28628;BME280;15815;46.760;19.604;2023-10-31T19:27:37;99649.00;;;13.29;88.02
28628;BME280;15815;46.760;19.604;2023-10-31T19:30:03;99643.59;;;13.19;89.17
28628;BME280;15815;46.760;19.604;2023-10-31T19:32:29;99652.50;;;13.17;88.99
28628;BME280;15815;46.760;19.604;2023-10-31T19:34:55;99662.03;;;13.23;88.66
28628;BME280;15815;46.760;19.604;2023-10-31T19:37:21;99679.69;;;13.27;88.24
28628;BME280;15815;46.760;19.604;2023-10-31T19:39:47;99655.97;;;13.05;88.55
28628;BME280;15815;46.760;19.604;2023-10-31T19:42:13;99688.81;;;13.15;88.73
28628;BME280;15815;46.760;19.604;2023-10-31T19:44:42;99708.88;;;13.21;88.75
28628;BME280;15815;46.760;19.604;2023-10-31T19:47:08;99703.31;;;13.14;88.61
28628;BME280;15815;46.760;19.604;2023-10-31T19:49:33;99695.47;;;13.05;88.61
28628;BME280;15815;46.760;19.604;2023-10-31T19:51:59;99717.50;;;13.10;88.61
28628;BME280;15815;46.760;19.604;2023-10-31T19:54:25;99713.91;;;13.10;88.49
28628;BME280;15815;46.760;19.604;2023-10-31T19:56:50;99703.56;;;13.03;87.97
28628;BME280;15815;46.760;19.604;2023-10-31T19:59:17;99705.69;;;12.99;87.63
28628;BME280;15815;46.760;19.604;2023-10-31T20:01:43;99679.88;;;12.81;88.22
28628;BME280;15815;46.760;19.604;2023-10-31T20:04:12;99707.94;;;12.88;87.79
28628;BME280;15815;46.760;19.604;2023-10-31T20:06:38;99701.16;;;12.65;88.15
28628;BME280;15815;46.760;19.604;2023-10-31T20:09:04;99698.88;;;12.57;87.97
28628;BME280;15815;46.760;19.604;2023-10-31T20:11:29;99712.44;;;12.65;87.93
28628;BME280;15815;46.760;19.604;2023-10-31T20:13:55;99710.13;;;12.60;87.51
28628;BME280;15815;46.760;19.604;2023-10-31T20:16:21;99716.59;;;12.57;87.35
28628;BME280;15815;46.760;19.604;2023-10-31T20:18:46;99710.22;;;12.53;87.47
28628;BME280;15815;46.760;19.604;2023-10-31T20:21:15;99713.41;;;12.55;87.32
28628;BME280;15815;46.760;19.604;2023-10-31T20:23:41;99723.16;;;12.51;87.18
28628;BME280;15815;46.760;19.604;2023-10-31T20:26:07;99711.91;;;12.51;86.71
28628;BME280;15815;46.760;19.604;2023-10-31T20:28:32;99728.38;;;12.52;86.63
28628;BME280;15815;46.760;19.604;2023-10-31T20:30:59;99720.06;;;12.45;86.94
28628;BME280;15815;46.760;19.604;2023-10-31T20:33:24;99723.66;;;12.46;87.78
28628;BME280;15815;46.760;19.604;2023-10-31T20:35:50;99730.09;;;12.46;88.45
28628;BME280;15815;46.760;19.604;2023-10-31T20:38:17;99707.34;;;12.37;88.27
28628;BME280;15815;46.760;19.604;2023-10-31T20:40:42;99751.34;;;12.51;88.26
28628;BME280;15815;46.760;19.604;2023-10-31T20:43:08;99735.44;;;12.41;88.80
28628;BME280;15815;46.760;19.604;2023-10-31T20:45:34;99732.56;;;12.44;88.18
28628;BME280;15815;46.760;19.604;2023-10-31T20:47:59;99745.28;;;12.52;88.65
28628;BME280;15815;46.760;19.604;2023-10-31T20:50:25;99748.09;;;12.52;89.21
28628;BME280;15815;46.760;19.604;2023-10-31T20:52:50;99753.75;;;12.52;88.88